createdAt,value
2022-12-20T00:01:49.389Z,99008.75
2022-12-20T00:04:16.963Z,99014.69
2022-12-20T00:06:44.220Z,99005.31
2022-12-20T00:09:12.372Z,99004.56
2022-12-20T00:11:41.990Z,98996.84
2022-12-20T00:14:10.801Z,98998.28
2022-12-20T00:16:38.912Z,99004.31
2022-12-20T00:19:08.076Z,99001.78
2022-12-20T00:21:36.504Z,99002.66
2022-12-20T00:24:06.444Z,99002.56
2022-12-20T00:26:35.867Z,98997.31
2022-12-20T00:29:03.880Z,98992.00
2022-12-20T00:31:32.216Z,98990.34
2022-12-20T00:34:01.436Z,98993.91
2022-12-20T00:36:31.631Z,98998.25
2022-12-20T00:39:00.666Z,98987.16
2022-12-20T00:41:32.379Z,98976.66
2022-12-20T00:44:02.000Z,98992.00
2022-12-20T00:46:31.767Z,98987.81
2022-12-20T00:48:59.573Z,99000.59
2022-12-20T00:51:30.144Z,98977.31
2022-12-20T00:53:57.653Z,98973.88
2022-12-20T00:56:25.759Z,98972.25
2022-12-20T00:58:54.640Z,98967.88
2022-12-20T01:01:30.728Z,98950.59
2022-12-20T01:03:59.406Z,98946.28
2022-12-20T01:06:27.666Z,98937.72
2022-12-20T01:08:56.686Z,98968.53
2022-12-20T01:11:39.147Z,98973.78
2022-12-20T01:14:15.440Z,98999.56
2022-12-20T01:16:48.379Z,98971.25
2022-12-20T01:19:18.648Z,98985.81
2022-12-20T01:21:46.424Z,98978.88
2022-12-20T01:24:22.794Z,98972.09
2022-12-20T01:26:50.197Z,98972.84
2022-12-20T01:29:17.779Z,98973.69
2022-12-20T01:31:45.555Z,98971.09
2022-12-20T01:34:13.185Z,98966.84
2022-12-20T01:36:40.507Z,98964.31
2022-12-20T01:39:17.707Z,98960.88
2022-12-20T01:41:47.285Z,98963.34
2022-12-20T01:44:17.906Z,98956.59
2022-12-20T01:46:50.673Z,98943.81
2022-12-20T01:49:46.763Z,98936.00
2022-12-20T01:52:23.744Z,98931.03
2022-12-20T01:55:02.404Z,98947.31
2022-12-20T01:57:49.631Z,98937.84
2022-12-20T02:00:18.497Z,98924.09
2022-12-20T02:02:50.821Z,98917.09
2022-12-20T02:05:22.983Z,98921.59
2022-12-20T02:07:56.811Z,98922.44
2022-12-20T02:10:42.407Z,98931.94
2022-12-20T02:13:25.060Z,98932.69
2022-12-20T02:15:58.132Z,98951.44
2022-12-20T02:18:55.161Z,98954.91
2022-12-20T02:21:49.966Z,98946.22
2022-12-20T02:25:13.501Z,98938.63
2022-12-20T02:28:00.458Z,98938.59
2022-12-20T02:30:38.124Z,98934.25
2022-12-20T02:33:13.292Z,98919.69
2022-12-20T02:35:42.674Z,98912.66
2022-12-20T02:38:34.797Z,98902.38
2022-12-20T02:41:16.406Z,98901.03
2022-12-20T02:44:07.453Z,98912.13
2022-12-20T02:46:37.201Z,98918.97
2022-12-20T02:49:18.718Z,98915.50
2022-12-20T02:51:52.576Z,98925.91
2022-12-20T02:54:21.095Z,98919.13
2022-12-20T02:57:00.494Z,98929.34
2022-12-20T02:59:56.684Z,98920.81
2022-12-20T03:02:25.956Z,98910.53
2022-12-20T03:04:56.906Z,98917.25
2022-12-20T03:07:24.151Z,98908.75
2022-12-20T03:09:51.816Z,98896.06
2022-12-20T03:12:19.113Z,98911.44
2022-12-20T03:14:46.686Z,98916.56
2022-12-20T03:17:14.284Z,98909.00
2022-12-20T03:19:41.909Z,98896.00
2022-12-20T03:22:09.191Z,98912.31
2022-12-20T03:24:36.949Z,98898.78
2022-12-20T03:27:04.266Z,98913.31
2022-12-20T03:29:32.157Z,98908.25
2022-12-20T03:31:59.365Z,98892.09
2022-12-20T03:34:26.989Z,98892.09
2022-12-20T03:36:54.295Z,98889.38
2022-12-20T03:39:23.073Z,98885.88
2022-12-20T03:41:50.751Z,98880.03
2022-12-20T03:44:18.368Z,98887.78
2022-12-20T03:46:45.751Z,98892.09
2022-12-20T03:49:13.422Z,98885.28
2022-12-20T03:51:40.715Z,98884.50
2022-12-20T03:54:08.293Z,98886.13
2022-12-20T03:56:35.777Z,98887.81
2022-12-20T03:59:03.481Z,98893.59
2022-12-20T04:01:36.809Z,98888.66
2022-12-20T04:04:05.856Z,98875.84
2022-12-20T04:06:33.121Z,98898.19
2022-12-20T04:09:00.612Z,98880.94
2022-12-20T04:11:27.940Z,98891.91
2022-12-20T04:13:55.684Z,98890.38
2022-12-20T04:16:29.714Z,98897.19
2022-12-20T04:18:57.452Z,98898.75
2022-12-20T04:21:31.883Z,98899.88
2022-12-20T04:24:02.216Z,98892.94
2022-12-20T04:26:29.821Z,98909.19
2022-12-20T04:28:57.586Z,98909.31
2022-12-20T04:31:25.257Z,98904.72
2022-12-20T04:33:53.067Z,98903.16
2022-12-20T04:36:21.110Z,98910.88
2022-12-20T04:38:48.817Z,98896.88
2022-12-20T04:41:22.774Z,98898.69
2022-12-20T04:43:53.922Z,98887.47
2022-12-20T04:46:23.018Z,98901.41
2022-12-20T04:48:59.603Z,98899.56
2022-12-20T04:51:28.633Z,98896.19
2022-12-20T04:53:56.608Z,98906.50
2022-12-20T04:56:29.442Z,98899.78
2022-12-20T04:58:59.261Z,98903.00
2022-12-20T05:01:27.255Z,98897.00
2022-12-20T05:03:55.334Z,98891.00
2022-12-20T05:06:22.678Z,98883.31
2022-12-20T05:08:50.257Z,98882.31
2022-12-20T05:11:17.854Z,98885.88
2022-12-20T05:13:45.365Z,98896.22
2022-12-20T05:16:12.684Z,98896.06
2022-12-20T05:18:46.517Z,98889.19
2022-12-20T05:21:35.142Z,98872.19
2022-12-20T05:24:21.136Z,98892.66
2022-12-20T05:26:48.430Z,98876.44
2022-12-20T05:29:17.008Z,98868.69
2022-12-20T05:31:44.386Z,98877.25
2022-12-20T05:34:11.938Z,98880.91
2022-12-20T05:36:39.248Z,98891.06
2022-12-20T05:39:06.947Z,98880.72
2022-12-20T05:41:34.238Z,98878.72
2022-12-20T05:44:02.063Z,98859.34
2022-12-20T05:46:29.334Z,98848.38
2022-12-20T05:48:56.921Z,98859.31
2022-12-20T05:51:24.782Z,98855.97
2022-12-20T05:53:52.400Z,98851.81
2022-12-20T05:56:19.632Z,98847.63
2022-12-20T05:58:47.168Z,98860.50
2022-12-20T06:01:14.735Z,98846.00
2022-12-20T06:03:42.348Z,98854.63
2022-12-20T06:06:14.593Z,98849.56
2022-12-20T06:08:43.060Z,98847.91
2022-12-20T06:11:10.563Z,98853.91
2022-12-20T06:13:38.117Z,98847.72
2022-12-20T06:16:05.695Z,98858.97
2022-12-20T06:18:33.487Z,98846.94
2022-12-20T06:21:00.801Z,98843.34
2022-12-20T06:23:28.401Z,98846.13
2022-12-20T06:25:55.795Z,98852.19
2022-12-20T06:28:23.437Z,98846.91
2022-12-20T06:30:58.509Z,98857.38
2022-12-20T06:33:26.268Z,98852.97
2022-12-20T06:35:53.741Z,98867.63
2022-12-20T06:38:21.247Z,98838.47
2022-12-20T06:40:48.501Z,98842.09
2022-12-20T06:43:16.525Z,98844.75
2022-12-20T06:45:43.871Z,98844.72
2022-12-20T06:48:12.180Z,98854.88
2022-12-20T06:50:40.156Z,98843.72
2022-12-20T06:53:07.700Z,98854.00
2022-12-20T06:55:35.269Z,98849.59
2022-12-20T06:58:04.287Z,98849.53
2022-12-20T07:00:31.882Z,98855.41
2022-12-20T07:02:59.883Z,98855.34
2022-12-20T07:05:27.631Z,98849.97
2022-12-20T07:07:55.224Z,98857.75
2022-12-20T07:10:22.478Z,98862.56
2022-12-20T07:12:50.277Z,98866.00
2022-12-20T07:15:17.628Z,98871.16
2022-12-20T07:17:45.390Z,98863.16
2022-12-20T07:20:14.047Z,98864.53
2022-12-20T07:22:42.568Z,98864.59
2022-12-20T07:25:11.516Z,98856.63
2022-12-20T07:27:39.229Z,98845.47
2022-12-20T07:30:07.515Z,98849.72
2022-12-20T07:32:35.112Z,98859.03
2022-12-20T07:35:02.439Z,98848.88
2022-12-20T07:37:30.294Z,98856.44
2022-12-20T07:39:57.601Z,98852.75
2022-12-20T07:42:30.322Z,98852.63
2022-12-20T07:45:02.927Z,98842.47
2022-12-20T07:47:30.502Z,98845.00
2022-12-20T07:49:57.700Z,98838.69
2022-12-20T07:52:29.725Z,98831.03
2022-12-20T07:55:04.170Z,98838.66
2022-12-20T07:57:46.540Z,98843.53
2022-12-20T08:00:15.168Z,98834.53
2022-12-20T08:03:01.053Z,98842.66
2022-12-20T08:05:29.260Z,98838.13
2022-12-20T08:08:00.203Z,98837.44
2022-12-20T08:10:28.997Z,98848.22
2022-12-20T08:12:58.534Z,98848.28
2022-12-20T08:15:28.766Z,98846.72
2022-12-20T08:17:56.330Z,98840.34
2022-12-20T08:20:23.763Z,98849.72
2022-12-20T08:22:51.269Z,98848.63
2022-12-20T08:25:18.947Z,98832.94
2022-12-20T08:27:46.503Z,98837.56
2022-12-20T08:30:14.496Z,98852.22
2022-12-20T08:32:42.118Z,98849.13
2022-12-20T08:35:09.559Z,98829.28
2022-12-20T08:37:37.181Z,98840.75
2022-12-20T08:40:05.199Z,98837.91
2022-12-20T08:42:32.888Z,98841.06
2022-12-20T08:45:00.161Z,98845.00
2022-12-20T08:47:30.544Z,98839.81
2022-12-20T08:49:57.834Z,98845.75
2022-12-20T08:52:25.357Z,98834.63
2022-12-20T08:54:52.897Z,98831.47
2022-12-20T08:57:20.361Z,98836.84
2022-12-20T08:59:47.890Z,98844.31
2022-12-20T09:02:15.554Z,98839.56
2022-12-20T09:04:44.571Z,98831.16
2022-12-20T09:07:12.264Z,98835.38
2022-12-20T09:09:39.572Z,98829.03
2022-12-20T09:12:07.835Z,98834.19
2022-12-20T09:14:35.176Z,98845.50
2022-12-20T09:17:02.726Z,98839.53
2022-12-20T09:19:31.231Z,98811.63
2022-12-20T09:21:58.857Z,98838.06
2022-12-20T09:24:26.197Z,98809.53
2022-12-20T09:26:53.882Z,98809.91
2022-12-20T09:29:28.304Z,98803.72
2022-12-20T09:31:57.312Z,98818.53
2022-12-20T09:34:24.664Z,98821.97
2022-12-20T09:36:53.014Z,98827.22
2022-12-20T09:39:20.324Z,98823.31
2022-12-20T09:41:48.395Z,98807.81
2022-12-20T09:44:32.168Z,98805.09
2022-12-20T09:47:10.487Z,98795.16
2022-12-20T09:49:45.924Z,98796.84
2022-12-20T09:53:00.280Z,98766.28
2022-12-20T09:55:47.508Z,98749.03
2022-12-20T09:58:23.969Z,98744.06
2022-12-20T10:00:54.387Z,98737.81
2022-12-20T10:03:35.838Z,98739.56
2022-12-20T10:06:47.803Z,98722.59
2022-12-20T10:09:30.276Z,98739.22
2022-12-20T10:12:09.837Z,98749.72
2022-12-20T10:14:45.950Z,98766.91
2022-12-20T10:17:32.227Z,98773.16
2022-12-20T10:20:00.903Z,98775.53
2022-12-20T10:22:46.996Z,98746.50
2022-12-20T10:25:28.918Z,98758.75
2022-12-20T10:27:57.626Z,98751.22
2022-12-20T10:30:29.114Z,98746.66
2022-12-20T10:32:58.883Z,98734.63
2022-12-20T10:35:29.310Z,98721.88
2022-12-20T10:38:12.899Z,98718.00
2022-12-20T10:41:19.459Z,98743.94
2022-12-20T10:43:46.309Z,98729.59
2022-12-20T10:46:19.173Z,98722.66
2022-12-20T10:48:49.100Z,98729.06
2022-12-20T10:51:22.708Z,98715.75
2022-12-20T10:54:20.173Z,98712.97
2022-12-20T10:56:59.317Z,98714.84
2022-12-20T10:59:37.895Z,98695.19
2022-12-20T11:02:39.527Z,98702.19
2022-12-20T11:05:11.498Z,98687.22
2022-12-20T11:08:34.094Z,98688.47
2022-12-20T11:11:23.998Z,98697.25
2022-12-20T11:13:52.831Z,98687.69
2022-12-20T11:16:39.107Z,98672.31
2022-12-20T11:19:18.914Z,98660.38
2022-12-20T11:22:24.130Z,98664.13
2022-12-20T11:25:19.190Z,98662.50
2022-12-20T11:28:12.526Z,98658.25
2022-12-20T11:31:13.883Z,98658.38
2022-12-20T11:34:03.478Z,98658.03
2022-12-20T11:37:07.316Z,98674.66
2022-12-20T11:39:53.381Z,98660.66
2022-12-20T11:43:00.807Z,98664.75
2022-12-20T11:46:01.944Z,98666.56
2022-12-20T11:48:59.097Z,98647.41
2022-12-20T11:51:48.422Z,98644.44
2022-12-20T11:54:28.840Z,98655.22
2022-12-20T11:57:26.655Z,98659.13
2022-12-20T12:00:00.287Z,98635.09
2022-12-20T12:02:42.222Z,98647.91
2022-12-20T12:05:34.010Z,98640.06
2022-12-20T12:08:17.979Z,98645.00
2022-12-20T12:11:06.488Z,98642.84
2022-12-20T12:13:40.314Z,98646.00
2022-12-20T12:16:28.357Z,98649.81
2022-12-20T12:18:59.631Z,98641.97
2022-12-20T12:21:37.886Z,98647.88
2022-12-20T12:24:29.280Z,98646.97
2022-12-20T12:27:00.121Z,98652.47
2022-12-20T12:29:31.018Z,98639.50
2022-12-20T12:32:14.948Z,98638.72
2022-12-20T12:35:15.860Z,98634.19
2022-12-20T12:38:24.374Z,98622.16
2022-12-20T12:41:34.509Z,98629.81
2022-12-20T12:44:25.905Z,98617.41
2022-12-20T12:47:41.897Z,98621.06
2022-12-20T12:50:23.366Z,98619.09
2022-12-20T12:52:55.993Z,98615.00
2022-12-20T12:55:44.771Z,98615.56
2022-12-20T12:58:24.003Z,98623.78
2022-12-20T13:01:01.521Z,98618.81
2022-12-20T13:03:43.850Z,98616.34
2022-12-20T13:06:23.682Z,98615.66
2022-12-20T13:09:20.280Z,98608.81
2022-12-20T13:11:53.729Z,98606.09
2022-12-20T13:14:29.627Z,98620.84
2022-12-20T13:17:12.361Z,98613.59
2022-12-20T13:19:55.109Z,98622.69
2022-12-20T13:22:24.834Z,98606.16
2022-12-20T13:25:04.215Z,98620.97
2022-12-20T13:27:41.755Z,98608.56
2022-12-20T13:30:14.943Z,98622.31
2022-12-20T13:32:48.694Z,98610.56
2022-12-20T13:35:25.406Z,98621.19
2022-12-20T13:38:12.411Z,98622.88
2022-12-20T13:40:46.080Z,98618.81
2022-12-20T13:43:22.620Z,98618.06
2022-12-20T13:45:55.280Z,98619.06
2022-12-20T13:48:33.718Z,98618.94
2022-12-20T13:51:02.563Z,98627.34
2022-12-20T13:53:31.450Z,98618.47
2022-12-20T13:55:58.827Z,98626.97
2022-12-20T13:58:34.473Z,98627.56
2022-12-20T14:01:11.697Z,98631.97
2022-12-20T14:03:48.135Z,98627.47
2022-12-20T14:06:26.104Z,98635.34
2022-12-20T14:08:54.686Z,98624.25
2022-12-20T14:11:27.704Z,98619.25
2022-12-20T14:14:00.030Z,98610.06
2022-12-20T14:16:30.448Z,98610.25
2022-12-20T14:19:05.199Z,98628.50
2022-12-20T14:21:40.288Z,98613.47
2022-12-20T14:24:17.830Z,98616.53
2022-12-20T14:26:52.775Z,98614.81
2022-12-20T14:29:30.183Z,98617.03
2022-12-20T14:31:57.530Z,98617.34
2022-12-20T14:34:36.722Z,98612.41
2022-12-20T14:37:29.064Z,98621.84
2022-12-20T14:40:18.068Z,98621.63
2022-12-20T14:42:46.015Z,98631.16
2022-12-20T14:45:13.751Z,98620.78
2022-12-20T14:48:12.633Z,98614.97
2022-12-20T14:50:41.018Z,98616.84
2022-12-20T14:53:29.983Z,98608.59
2022-12-20T14:55:58.042Z,98607.59
2022-12-20T14:58:35.155Z,98600.91
2022-12-20T15:01:22.271Z,98600.75
2022-12-20T15:03:58.680Z,98579.97
2022-12-20T15:06:48.348Z,98592.22
2022-12-20T15:09:16.864Z,98584.22
2022-12-20T15:11:46.622Z,98594.59
2022-12-20T15:14:40.914Z,98582.81
2022-12-20T15:17:15.828Z,98587.47
2022-12-20T15:19:44.061Z,98584.63
2022-12-20T15:22:19.015Z,98595.22
2022-12-20T15:24:46.341Z,98588.44
2022-12-20T15:27:16.978Z,98591.91
2022-12-20T15:29:44.424Z,98601.47
2022-12-20T15:32:31.024Z,98589.03
2022-12-20T15:34:58.435Z,98594.31
2022-12-20T15:37:26.015Z,98586.91
2022-12-20T15:39:53.253Z,98576.28
2022-12-20T15:42:23.068Z,98589.53
2022-12-20T15:44:50.870Z,98580.16
2022-12-20T15:47:18.498Z,98575.97
2022-12-20T15:49:50.268Z,98576.59
2022-12-20T15:52:24.154Z,98568.22
2022-12-20T15:54:51.661Z,98553.75
2022-12-20T15:57:19.298Z,98565.88
2022-12-20T16:00:03.685Z,98554.81
2022-12-20T16:02:33.531Z,98562.34
2022-12-20T16:05:01.775Z,98562.50
2022-12-20T16:07:29.576Z,98569.50
2022-12-20T16:09:57.049Z,98575.81
2022-12-20T16:12:33.342Z,98560.34
2022-12-20T16:15:00.689Z,98569.94
2022-12-20T16:17:28.332Z,98556.31
2022-12-20T16:19:55.752Z,98562.38
2022-12-20T16:22:25.029Z,98560.09
2022-12-20T16:24:52.542Z,98557.66
2022-12-20T16:27:20.598Z,98555.22
2022-12-20T16:29:47.947Z,98557.69
2022-12-20T16:32:24.363Z,98550.97
2022-12-20T16:34:52.702Z,98538.81
2022-12-20T16:37:20.803Z,98541.81
2022-12-20T16:39:48.864Z,98529.09
2022-12-20T16:42:22.405Z,98545.44
2022-12-20T16:44:54.492Z,98542.34
2022-12-20T16:47:22.671Z,98541.59
2022-12-20T16:49:53.349Z,98533.75
2022-12-20T16:52:23.212Z,98548.94
2022-12-20T16:54:51.371Z,98540.09
2022-12-20T16:57:21.426Z,98543.84
2022-12-20T16:59:49.120Z,98534.38
2022-12-20T17:02:28.746Z,98537.66
2022-12-20T17:04:56.746Z,98539.34
2022-12-20T17:07:24.894Z,98540.25
2022-12-20T17:10:11.399Z,98542.13
2022-12-20T17:12:39.045Z,98533.75
2022-12-20T17:15:11.045Z,98535.97
2022-12-20T17:17:38.625Z,98535.28
2022-12-20T17:20:06.862Z,98525.63
2022-12-20T17:22:34.531Z,98536.22
2022-12-20T17:25:01.877Z,98536.22
2022-12-20T17:27:29.482Z,98529.00
2022-12-20T17:29:56.875Z,98523.06
2022-12-20T17:32:26.196Z,98526.53
2022-12-20T17:34:54.472Z,98524.88
2022-12-20T17:37:22.269Z,98531.88
2022-12-20T17:39:49.634Z,98530.00
2022-12-20T17:42:17.614Z,98533.41
2022-12-20T17:44:46.477Z,98527.13
2022-12-20T17:47:14.296Z,98515.97
2022-12-20T17:49:41.552Z,98521.13
2022-12-20T17:52:15.905Z,98529.09
2022-12-20T17:54:43.320Z,98516.13
2022-12-20T17:57:15.567Z,98509.13
2022-12-20T17:59:43.491Z,98515.28
2022-12-20T18:02:29.321Z,98521.13
2022-12-20T18:04:56.944Z,98512.56
2022-12-20T18:07:24.706Z,98511.13
2022-12-20T18:09:52.041Z,98504.22
2022-12-20T18:12:19.667Z,98505.16
2022-12-20T18:14:49.966Z,98502.38
2022-12-20T18:17:17.756Z,98490.22
2022-12-20T18:19:45.713Z,98500.84
2022-12-20T18:22:14.691Z,98490.69
2022-12-20T18:24:42.122Z,98485.59
2022-12-20T18:27:09.989Z,98489.78
2022-12-20T18:29:37.394Z,98477.88
2022-12-20T18:32:05.656Z,98471.97
2022-12-20T18:34:33.044Z,98464.06
2022-12-20T18:37:01.978Z,98470.19
2022-12-20T18:39:30.544Z,98470.19
2022-12-20T18:41:58.235Z,98468.41
2022-12-20T18:44:25.613Z,98474.31
2022-12-20T18:46:53.811Z,98473.47
2022-12-20T18:49:21.648Z,98466.06
2022-12-20T18:51:49.624Z,98466.50
2022-12-20T18:54:17.029Z,98475.47
2022-12-20T18:56:44.604Z,98482.38
2022-12-20T18:59:13.076Z,98471.41
2022-12-20T19:01:42.546Z,98480.69
2022-12-20T19:04:11.378Z,98483.63
2022-12-20T19:06:39.369Z,98470.78
2022-12-20T19:09:10.753Z,98478.53
2022-12-20T19:11:38.906Z,98469.25
2022-12-20T19:14:07.906Z,98471.06
2022-12-20T19:16:37.039Z,98467.47
2022-12-20T19:19:04.659Z,98464.97
2022-12-20T19:21:35.638Z,98463.28
2022-12-20T19:24:07.074Z,98446.31
2022-12-20T19:26:37.759Z,98446.19
2022-12-20T19:29:06.692Z,98446.31
2022-12-20T19:31:37.702Z,98442.34
2022-12-20T19:34:12.685Z,98438.16
2022-12-20T19:36:46.005Z,98439.72
2022-12-20T19:39:20.119Z,98432.91
2022-12-20T19:42:15.552Z,98445.94
2022-12-20T19:44:35.841Z,98432.00
2022-12-20T19:47:06.443Z,98429.47
2022-12-20T19:49:36.105Z,98442.16
2022-12-20T19:52:05.988Z,98438.94
2022-12-20T19:54:34.166Z,98438.16
2022-12-20T19:57:02.084Z,98432.97
2022-12-20T19:59:30.849Z,98440.75
2022-12-20T20:01:58.788Z,98446.78
2022-12-20T20:04:26.808Z,98453.66
2022-12-20T20:06:56.425Z,98439.81
2022-12-20T20:09:23.772Z,98440.44
2022-12-20T20:11:51.819Z,98437.00
2022-12-20T20:14:19.102Z,98443.06
2022-12-20T20:16:46.713Z,98436.34
2022-12-20T20:19:14.070Z,98447.59
2022-12-20T20:21:42.014Z,98435.63
2022-12-20T20:24:09.895Z,98434.03
2022-12-20T20:26:37.849Z,98442.31
2022-12-20T20:29:07.068Z,98440.53
2022-12-20T20:31:34.781Z,98434.59
2022-12-20T20:34:03.294Z,98431.03
2022-12-20T20:36:31.027Z,98437.25
2022-12-20T20:38:58.301Z,98430.38
2022-12-20T20:41:25.985Z,98426.53
2022-12-20T20:43:53.386Z,98425.50
2022-12-20T20:46:21.081Z,98425.75
2022-12-20T20:48:48.416Z,98414.47
2022-12-20T20:51:16.157Z,98417.19
2022-12-20T20:53:43.739Z,98412.78
2022-12-20T20:56:12.262Z,98400.97
2022-12-20T20:58:39.666Z,98417.03
2022-12-20T21:01:11.377Z,98419.56
2022-12-20T21:03:40.293Z,98409.44
2022-12-20T21:08:56.406Z,98410.22
2022-12-20T21:11:30.212Z,98399.53
2022-12-20T21:13:58.249Z,98388.59
2022-12-20T21:16:26.309Z,98379.09
2022-12-20T21:18:58.822Z,98369.56
2022-12-20T21:21:27.247Z,98370.50
2022-12-20T21:23:55.774Z,98377.56
2022-12-20T21:26:25.573Z,98375.44
2022-12-20T21:29:01.123Z,98369.38
2022-12-20T21:31:29.248Z,98363.97
2022-12-20T21:33:57.203Z,98372.81
2022-12-20T21:36:25.401Z,98357.28
2022-12-20T21:38:56.374Z,98353.50
2022-12-20T21:41:28.221Z,98339.31
2022-12-20T21:43:58.438Z,98328.03
2022-12-20T21:46:29.564Z,98332.06
2022-12-20T21:48:57.031Z,98341.63
2022-12-20T21:51:27.254Z,98350.91
2022-12-20T21:54:00.872Z,98343.47
2022-12-20T21:56:31.775Z,98346.94
2022-12-20T21:58:59.633Z,98340.72
2022-12-20T22:01:29.931Z,98336.63
2022-12-20T22:04:04.087Z,98317.47
2022-12-20T22:06:32.498Z,98333.56
2022-12-20T22:09:02.221Z,98324.78
2022-12-20T22:11:29.812Z,98306.81
2022-12-20T22:13:58.006Z,98304.59
2022-12-20T22:16:30.322Z,98307.63
2022-12-20T22:18:59.677Z,98307.47
2022-12-20T22:21:33.699Z,98313.38
2022-12-20T22:24:02.176Z,98305.72
2022-12-20T22:26:33.328Z,98313.50
2022-12-20T22:29:06.493Z,98306.63
2022-12-20T22:31:35.680Z,98300.72
2022-12-20T22:34:03.605Z,98305.38
2022-12-20T22:36:31.963Z,98307.22
2022-12-20T22:38:59.537Z,98297.03
2022-12-20T22:41:30.570Z,98302.97
2022-12-20T22:43:59.619Z,98308.63
2022-12-20T22:46:32.257Z,98303.34
2022-12-20T22:49:01.580Z,98294.06
2022-12-20T22:51:33.606Z,98287.25
2022-12-20T22:54:01.308Z,98282.25
2022-12-20T22:56:29.020Z,98281.31
2022-12-20T22:58:56.613Z,98266.75
2022-12-20T23:01:30.598Z,98276.16
2022-12-20T23:03:58.057Z,98270.81
2022-12-20T23:06:25.846Z,98267.69
2022-12-20T23:08:53.262Z,98251.91
2022-12-20T23:11:43.937Z,98240.84
2022-12-20T23:14:39.938Z,98238.78
2022-12-20T23:17:10.159Z,98245.69
2022-12-20T23:19:56.810Z,98232.25
2022-12-20T23:22:43.428Z,98225.38
2022-12-20T23:25:16.733Z,98237.38
2022-12-20T23:27:47.896Z,98229.06
2022-12-20T23:30:21.879Z,98214.75
2022-12-20T23:32:49.927Z,98223.69
2022-12-20T23:35:20.861Z,98232.47
2022-12-20T23:37:48.881Z,98214.91
2022-12-20T23:40:17.494Z,98210.16
2022-12-20T23:42:45.867Z,98207.13
2022-12-20T23:45:13.771Z,98231.94
2022-12-20T23:47:41.429Z,98224.03
2022-12-20T23:50:09.407Z,98212.47
2022-12-20T23:52:36.994Z,98251.59
2022-12-20T23:55:05.050Z,98234.56
2022-12-20T23:57:33.248Z,98224.53
